sensor_id;sensor_type;location;lat;lon;timestamp;pressure;altitude;pressure_sealevel;temperature;humidity
28310;BME280;15571;50.974;13.936;2023-01-28T00:00:37;100960.94;;;1.39;100.00
28310;BME280;15571;50.974;13.936;2023-01-28T00:03:39;100954.97;;;1.40;100.00
28310;BME280;15571;50.974;13.936;2023-01-28T00:06:42;100954.97;;;1.40;100.00
28310;BME280;15571;50.974;13.936;2023-01-28T00:09:45;100949.81;;;1.40;100.00
28310;BME280;15571;50.974;13.936;2023-01-28T00:12:47;100951.38;;;1.37;100.00
28310;BME280;15571;50.974;13.936;2023-01-28T00:15:53;100951.31;;;1.35;100.00
28310;BME280;15571;50.974;13.936;2023-01-28T00:18:55;100946.16;;;1.35;100.00
28310;BME280;15571;50.974;13.936;2023-01-28T00:21:58;100946.16;;;1.35;100.00
28310;BME280;15571;50.974;13.936;2023-01-28T00:25:01;100946.22;;;1.37;100.00
28310;BME280;15571;50.974;13.936;2023-01-28T00:28:04;100941.00;;;1.35;100.00
28310;BME280;15571;50.974;13.936;2023-01-28T00:31:09;100942.78;;;1.36;100.00
28310;BME280;15571;50.974;13.936;2023-01-28T00:34:11;100939.25;;;1.34;100.00
28310;BME280;15571;50.974;13.936;2023-01-28T00:37:16;100933.13;;;1.32;100.00
28310;BME280;15571;50.974;13.936;2023-01-28T00:40:18;100934.75;;;1.30;100.00
28310;BME280;15571;50.974;13.936;2023-01-28T00:43:20;100947.66;;;1.30;100.00
28310;BME280;15571;50.974;13.936;2023-01-28T00:46:22;100942.50;;;1.30;100.00
28310;BME280;15571;50.974;13.936;2023-01-28T00:49:27;100939.91;;;1.30;100.00
28310;BME280;15571;50.974;13.936;2023-01-28T00:52:30;100939.78;;;1.27;100.00
28310;BME280;15571;50.974;13.936;2023-01-28T00:55:32;100939.59;;;1.22;100.00
28310;BME280;15571;50.974;13.936;2023-01-28T00:58:34;100941.94;;;1.18;100.00
28310;BME280;15571;50.974;13.936;2023-01-28T01:01:36;100942.69;;;1.15;100.00
28310;BME280;15571;50.974;13.936;2023-01-28T01:04:39;100948.47;;;1.09;100.00
28310;BME280;15571;50.974;13.936;2023-01-28T01:07:55;100956.88;;;1.05;100.00
28310;BME280;15571;50.974;13.936;2023-01-28T01:10:58;100947.38;;;1.04;100.00
28310;BME280;15571;50.974;13.936;2023-01-28T01:14:08;100951.59;;;1.02;100.00
28310;BME280;15571;50.974;13.936;2023-01-28T01:17:19;100951.59;;;1.02;100.00
28310;BME280;15571;50.974;13.936;2023-01-28T01:20:22;100963.66;;;1.03;100.00
28310;BME280;15571;50.974;13.936;2023-01-28T01:23:26;100955.56;;;0.96;100.00
28310;BME280;15571;50.974;13.936;2023-01-28T01:26:31;100957.28;;;0.95;100.00
28310;BME280;15571;50.974;13.936;2023-01-28T01:29:33;100966.78;;;0.96;100.00
28310;BME280;15571;50.974;13.936;2023-01-28T01:32:35;100969.88;;;0.89;100.00
28310;BME280;15571;50.974;13.936;2023-01-28T01:35:37;100978.28;;;0.85;100.00
28310;BME280;15571;50.974;13.936;2023-01-28T01:38:40;100976.25;;;0.77;100.00
28310;BME280;15571;50.974;13.936;2023-01-28T01:41:42;100980.66;;;0.80;100.00
28310;BME280;15571;50.974;13.936;2023-01-28T01:44:51;100971.22;;;0.81;100.00
28310;BME280;15571;50.974;13.936;2023-01-28T01:47:55;100973.00;;;0.82;100.00
28310;BME280;15571;50.974;13.936;2023-01-28T01:50:58;100974.50;;;0.76;100.00
28310;BME280;15571;50.974;13.936;2023-01-28T01:54:03;100974.50;;;0.76;100.00
28310;BME280;15571;50.974;13.936;2023-01-28T01:57:05;100968.59;;;0.79;100.00
28310;BME280;15571;50.974;13.936;2023-01-28T02:00:10;100968.59;;;0.79;100.00
28310;BME280;15571;50.974;13.936;2023-01-28T02:03:15;100971.97;;;0.78;100.00
28310;BME280;15571;50.974;13.936;2023-01-28T02:06:19;100970.13;;;0.75;100.00
28310;BME280;15571;50.974;13.936;2023-01-28T02:09:24;100972.72;;;0.75;100.00
28310;BME280;15571;50.974;13.936;2023-01-28T02:12:28;100970.94;;;0.74;100.00
28310;BME280;15571;50.974;13.936;2023-01-28T02:15:32;100970.94;;;0.74;100.00
28310;BME280;15571;50.974;13.936;2023-01-28T02:18:36;100963.22;;;0.74;100.00
28310;BME280;15571;50.974;13.936;2023-01-28T02:21:46;100971.47;;;0.67;100.00
28310;BME280;15571;50.974;13.936;2023-01-28T02:28:19;100957.78;;;0.68;100.00
28310;BME280;15571;50.974;13.936;2023-01-28T02:31:26;100958.72;;;0.70;100.00
28310;BME280;15571;50.974;13.936;2023-01-28T02:34:33;100965.53;;;0.68;100.00
28310;BME280;15571;50.974;13.936;2023-01-28T02:37:37;100961.03;;;0.64;100.00
28310;BME280;15571;50.974;13.936;2023-01-28T02:40:41;100965.38;;;0.65;100.00
28310;BME280;15571;50.974;13.936;2023-01-28T02:44:00;100974.44;;;0.57;100.00
28310;BME280;15571;50.974;13.936;2023-01-28T02:47:04;100971.06;;;0.58;100.00
28310;BME280;15571;50.974;13.936;2023-01-28T02:50:26;100980.31;;;0.54;100.00
28310;BME280;15571;50.974;13.936;2023-01-28T02:53:33;100981.84;;;0.51;100.00
28310;BME280;15571;50.974;13.936;2023-01-28T02:56:47;100978.63;;;0.55;100.00
28310;BME280;15571;50.974;13.936;2023-01-28T02:59:53;100981.84;;;0.51;100.00
28310;BME280;15571;50.974;13.936;2023-01-28T03:03:04;100979.28;;;0.51;100.00
28310;BME280;15571;50.974;13.936;2023-01-28T03:06:10;100987.00;;;0.51;100.00
28310;BME280;15571;50.974;13.936;2023-01-28T03:09:15;100985.13;;;0.46;100.00
28310;BME280;15571;50.974;13.936;2023-01-28T03:12:27;100983.50;;;0.49;100.00
28310;BME280;15571;50.974;13.936;2023-01-28T03:15:48;100976.63;;;0.49;100.00
28310;BME280;15571;50.974;13.936;2023-01-28T03:19:08;100985.25;;;0.50;100.00
28310;BME280;15571;50.974;13.936;2023-01-28T03:22:28;100988.44;;;0.44;100.00
28310;BME280;15571;50.974;13.936;2023-01-28T03:25:52;100987.81;;;0.50;100.00
28310;BME280;15571;50.974;13.936;2023-01-28T03:29:13;100993.81;;;0.49;100.00
28310;BME280;15571;50.974;13.936;2023-01-28T03:32:39;100999.66;;;0.46;100.00
28310;BME280;15571;50.974;13.936;2023-01-28T03:36:00;100997.19;;;0.48;100.00
28310;BME280;15571;50.974;13.936;2023-01-28T03:39:21;100997.19;;;0.48;100.00
28310;BME280;15571;50.974;13.936;2023-01-28T03:42:24;100994.63;;;0.48;100.00
28310;BME280;15571;50.974;13.936;2023-01-28T03:45:43;101002.34;;;0.48;100.00
28310;BME280;15571;50.974;13.936;2023-01-28T03:48:48;101000.56;;;0.46;100.00
28310;BME280;15571;50.974;13.936;2023-01-28T03:51:52;101000.69;;;0.50;100.00
28310;BME280;15571;50.974;13.936;2023-01-28T03:54:54;101003.38;;;0.51;100.00
28310;BME280;15571;50.974;13.936;2023-01-28T03:57:56;101007.72;;;0.52;100.00
28310;BME280;15571;50.974;13.936;2023-01-28T04:00:59;101005.94;;;0.51;100.00
28310;BME280;15571;50.974;13.936;2023-01-28T04:04:03;101004.16;;;0.50;100.00
28310;BME280;15571;50.974;13.936;2023-01-28T04:07:05;101014.91;;;0.41;100.00
28310;BME280;15571;50.974;13.936;2023-01-28T04:10:43;101012.41;;;0.43;100.00
28310;BME280;15571;50.974;13.936;2023-01-28T04:14:02;101009.69;;;0.40;100.00
28310;BME280;15571;50.974;13.936;2023-01-28T04:17:16;101013.00;;;0.37;100.00
28310;BME280;15571;50.974;13.936;2023-01-28T04:20:21;101005.94;;;0.33;100.00
28310;BME280;15571;50.974;13.936;2023-01-28T04:23:33;101016.75;;;0.26;100.00
28310;BME280;15571;50.974;13.936;2023-01-28T04:26:36;101019.84;;;0.19;100.00
28310;BME280;15571;50.974;13.936;2023-01-28T04:29:38;101017.25;;;0.19;100.00
28310;BME280;15571;50.974;13.936;2023-01-28T04:33:07;101016.28;;;0.17;100.00
28310;BME280;15571;50.974;13.936;2023-01-28T04:36:34;101022.41;;;0.19;100.00
28310;BME280;15571;50.974;13.936;2023-01-28T04:39:59;101023.91;;;0.15;100.00
28310;BME280;15571;50.974;13.936;2023-01-28T04:43:22;101021.44;;;0.17;100.00
28310;BME280;15571;50.974;13.936;2023-01-28T04:46:27;101028.03;;;0.11;100.00
28310;BME280;15571;50.974;13.936;2023-01-28T04:49:55;101034.00;;;0.10;100.00
28310;BME280;15571;50.974;13.936;2023-01-28T04:53:21;101042.44;;;0.08;100.00
28310;BME280;15571;50.974;13.936;2023-01-28T04:56:30;101041.41;;;0.04;100.00
28310;BME280;15571;50.974;13.936;2023-01-28T04:59:35;101045.47;;;-0.01;100.00
28310;BME280;15571;50.974;13.936;2023-01-28T05:02:40;101046.66;;;-0.11;100.00
28310;BME280;15571;50.974;13.936;2023-01-28T05:05:45;101044.84;;;-0.13;100.00
28310;BME280;15571;50.974;13.936;2023-01-28T05:08:56;101042.91;;;-0.18;100.00
28310;BME280;15571;50.974;13.936;2023-01-28T05:11:58;101053.13;;;-0.19;100.00
28310;BME280;15571;50.974;13.936;2023-01-28T05:15:00;101067.34;;;-0.26;100.00
28310;BME280;15571;50.974;13.936;2023-01-28T05:18:02;101055.47;;;-0.24;100.00
28310;BME280;15571;50.974;13.936;2023-01-28T05:21:10;101058.66;;;-0.28;100.00
28310;BME280;15571;50.974;13.936;2023-01-28T05:24:14;101065.56;;;-0.27;100.00
28310;BME280;15571;50.974;13.936;2023-01-28T05:27:18;101070.66;;;-0.28;100.00
28310;BME280;15571;50.974;13.936;2023-01-28T05:30:20;101070.72;;;-0.27;100.00
28310;BME280;15571;50.974;13.936;2023-01-28T05:33:22;101073.41;;;-0.25;100.00
28310;BME280;15571;50.974;13.936;2023-01-28T05:36:24;101073.31;;;-0.27;100.00
28310;BME280;15571;50.974;13.936;2023-01-28T05:39:29;101076.66;;;-0.28;100.00
28310;BME280;15571;50.974;13.936;2023-01-28T05:42:31;101077.66;;;-0.26;100.00
28310;BME280;15571;50.974;13.936;2023-01-28T05:45:50;101089.16;;;-0.19;100.00
28310;BME280;15571;50.974;13.936;2023-01-28T05:49:07;101090.69;;;-0.23;100.00
28310;BME280;15571;50.974;13.936;2023-01-28T05:52:30;101086.16;;;-0.27;100.00
28310;BME280;15571;50.974;13.936;2023-01-28T05:55:34;101084.56;;;-0.25;100.00
28310;BME280;15571;50.974;13.936;2023-01-28T05:58:40;101091.66;;;-0.21;100.00
28310;BME280;15571;50.974;13.936;2023-01-28T06:01:42;101104.03;;;-0.30;100.00
28310;BME280;15571;50.974;13.936;2023-01-28T06:04:44;101103.44;;;-0.41;100.00
28310;BME280;15571;50.974;13.936;2023-01-28T06:07:47;101105.78;;;-0.45;100.00
28310;BME280;15571;50.974;13.936;2023-01-28T06:10:51;101107.22;;;-0.51;100.00
28310;BME280;15571;50.974;13.936;2023-01-28T06:13:55;101108.66;;;-0.56;100.00
28310;BME280;15571;50.974;13.936;2023-01-28T06:17:06;101122.97;;;-0.61;100.00
28310;BME280;15571;50.974;13.936;2023-01-28T06:20:14;101125.19;;;-0.67;100.00
28310;BME280;15571;50.974;13.936;2023-01-28T06:23:20;101131.59;;;-0.75;100.00
28310;BME280;15571;50.974;13.936;2023-01-28T06:26:24;101137.53;;;-0.76;100.00
28310;BME280;15571;50.974;13.936;2023-01-28T06:29:26;101148.47;;;-0.81;100.00
28310;BME280;15571;50.974;13.936;2023-01-28T06:32:28;101156.72;;;-0.86;100.00
28310;BME280;15571;50.974;13.936;2023-01-28T06:35:30;101171.25;;;-0.87;100.00
28310;BME280;15571;50.974;13.936;2023-01-28T06:38:32;101159.91;;;-0.90;100.00
28310;BME280;15571;50.974;13.936;2023-01-28T06:41:36;101166.22;;;-1.00;100.00
28310;BME280;15571;50.974;13.936;2023-01-28T06:44:37;101181.66;;;-1.00;100.00
28310;BME280;15571;50.974;13.936;2023-01-28T06:47:42;101186.88;;;-0.99;100.00
28310;BME280;15571;50.974;13.936;2023-01-28T06:50:45;101196.88;;;-1.03;100.00
28310;BME280;15571;50.974;13.936;2023-01-28T06:53:47;101192.66;;;-1.18;100.00
28310;BME280;15571;50.974;13.936;2023-01-28T06:56:50;101198.13;;;-1.12;100.00
28310;BME280;15571;50.974;13.936;2023-01-28T06:59:52;101197.09;;;-1.15;100.00
28310;BME280;15571;50.974;13.936;2023-01-28T07:02:54;101206.13;;;-1.22;100.00
28310;BME280;15571;50.974;13.936;2023-01-28T07:05:57;101209.72;;;-1.33;100.00
28310;BME280;15571;50.974;13.936;2023-01-28T07:08:59;101207.88;;;-1.36;100.00
28310;BME280;15571;50.974;13.936;2023-01-28T07:12:03;101218.16;;;-1.36;100.00
28310;BME280;15571;50.974;13.936;2023-01-28T07:15:06;101216.66;;;-1.32;100.00
28310;BME280;15571;50.974;13.936;2023-01-28T07:18:10;101217.09;;;-1.39;100.00
28310;BME280;15571;50.974;13.936;2023-01-28T07:21:12;101218.88;;;-1.38;100.00
28310;BME280;15571;50.974;13.936;2023-01-28T07:24:16;101215.50;;;-1.37;100.00
28310;BME280;15571;50.974;13.936;2023-01-28T07:27:19;101217.16;;;-1.38;100.00
28310;BME280;15571;50.974;13.936;2023-01-28T07:30:21;101219.66;;;-1.39;100.00
28310;BME280;15571;50.974;13.936;2023-01-28T07:33:23;101224.00;;;-1.38;100.00
28310;BME280;15571;50.974;13.936;2023-01-28T07:36:25;101218.88;;;-1.38;100.00
28310;BME280;15571;50.974;13.936;2023-01-28T07:39:30;101221.00;;;-1.31;100.00
28310;BME280;15571;50.974;13.936;2023-01-28T07:42:33;101219.56;;;-1.26;100.00
28310;BME280;15571;50.974;13.936;2023-01-28T07:45:39;101223.50;;;-1.18;100.00
28310;BME280;15571;50.974;13.936;2023-01-28T07:48:40;101223.66;;;-1.15;100.00
28310;BME280;15571;50.974;13.936;2023-01-28T07:51:45;101221.28;;;-1.12;100.00
28310;BME280;15571;50.974;13.936;2023-01-28T07:54:50;101216.91;;;-1.13;100.00
28310;BME280;15571;50.974;13.936;2023-01-28T07:57:53;101222.25;;;-1.10;100.00
28310;BME280;15571;50.974;13.936;2023-01-28T08:00:56;101223.19;;;-1.07;100.00
28310;BME280;15571;50.974;13.936;2023-01-28T08:03:58;101208.03;;;-1.03;100.00
28310;BME280;15571;50.974;13.936;2023-01-28T08:07:00;101214.63;;;-1.08;100.00
28310;BME280;15571;50.974;13.936;2023-01-28T08:10:02;101222.25;;;-1.10;100.00
28310;BME280;15571;50.974;13.936;2023-01-28T08:13:08;101223.13;;;-1.09;100.00
28310;BME280;15571;50.974;13.936;2023-01-28T08:16:13;101233.66;;;-1.04;100.00
28310;BME280;15571;50.974;13.936;2023-01-28T08:19:21;101241.19;;;-1.07;100.00
28310;BME280;15571;50.974;13.936;2023-01-28T08:22:23;101234.38;;;-1.07;100.00
28310;BME280;15571;50.974;13.936;2023-01-28T08:25:25;101237.22;;;-1.17;100.00
28310;BME280;15571;50.974;13.936;2023-01-28T08:28:28;101232.88;;;-1.18;100.00
28310;BME280;15571;50.974;13.936;2023-01-28T08:31:31;101227.72;;;-1.18;100.00
28310;BME280;15571;50.974;13.936;2023-01-28T08:34:33;101239.06;;;-1.15;100.00
28310;BME280;15571;50.974;13.936;2023-01-28T08:37:35;101242.88;;;-1.23;100.00
28310;BME280;15571;50.974;13.936;2023-01-28T08:40:37;101238.78;;;-1.19;100.00
28310;BME280;15571;50.974;13.936;2023-01-28T08:43:41;101239.97;;;-1.29;100.00
28310;BME280;15571;50.974;13.936;2023-01-28T08:46:45;101250.50;;;-1.24;100.00
28310;BME280;15571;50.974;13.936;2023-01-28T08:49:47;101247.03;;;-1.25;100.00
28310;BME280;15571;50.974;13.936;2023-01-28T08:52:53;101247.13;;;-1.23;100.00
28310;BME280;15571;50.974;13.936;2023-01-28T08:55:56;101246.94;;;-1.27;100.00
28310;BME280;15571;50.974;13.936;2023-01-28T08:58:59;101246.88;;;-1.28;100.00
28310;BME280;15571;50.974;13.936;2023-01-28T09:02:05;101257.16;;;-1.28;100.00
28310;BME280;15571;50.974;13.936;2023-01-28T09:05:07;101261.09;;;-1.33;100.00
28310;BME280;15571;50.974;13.936;2023-01-28T09:08:11;101265.00;;;-1.25;100.00
28310;BME280;15571;50.974;13.936;2023-01-28T09:11:13;101265.53;;;-1.31;100.00
28310;BME280;15571;50.974;13.936;2023-01-28T09:14:16;101276.09;;;-1.26;100.00
28310;BME280;15571;50.974;13.936;2023-01-28T09:17:18;101272.91;;;-1.22;100.00
28310;BME280;15571;50.974;13.936;2023-01-28T09:20:20;101272.00;;;-1.22;100.00
28310;BME280;15571;50.974;13.936;2023-01-28T09:23:22;101274.84;;;-1.33;100.00
28310;BME280;15571;50.974;13.936;2023-01-28T09:26:24;101280.34;;;-1.27;100.00
28310;BME280;15571;50.974;13.936;2023-01-28T09:29:28;101281.59;;;-1.20;100.00
28310;BME280;15571;50.974;13.936;2023-01-28T09:32:29;101282.66;;;-1.16;100.00
28310;BME280;15571;50.974;13.936;2023-01-28T09:35:32;101295.78;;;-1.12;100.00
28310;BME280;15571;50.974;13.936;2023-01-28T09:38:34;101288.00;;;-1.13;100.00
28310;BME280;15571;50.974;13.936;2023-01-28T09:41:41;101286.56;;;-1.08;100.00
28310;BME280;15571;50.974;13.936;2023-01-28T09:44:56;101287.63;;;-1.04;100.00
28310;BME280;15571;50.974;13.936;2023-01-28T09:48:02;101281.78;;;-1.02;100.00
28310;BME280;15571;50.974;13.936;2023-01-28T09:51:08;101281.44;;;-0.93;100.00
28310;BME280;15571;50.974;13.936;2023-01-28T09:54:14;101288.69;;;-0.86;100.00
28310;BME280;15571;50.974;13.936;2023-01-28T09:57:21;101295.81;;;-0.82;100.00
28310;BME280;15571;50.974;13.936;2023-01-28T10:00:31;101300.03;;;-0.82;100.00
28310;BME280;15571;50.974;13.936;2023-01-28T10:03:44;101297.75;;;-0.92;100.00
28310;BME280;15571;50.974;13.936;2023-01-28T10:06:55;101304.84;;;-0.88;100.00
28310;BME280;15571;50.974;13.936;2023-01-28T10:10:05;101291.38;;;-0.84;100.00
28310;BME280;15571;50.974;13.936;2023-01-28T10:13:13;101302.88;;;-0.77;100.00
28310;BME280;15571;50.974;13.936;2023-01-28T10:16:20;101301.13;;;-0.79;100.00
28310;BME280;15571;50.974;13.936;2023-01-28T10:19:27;101287.66;;;-0.74;100.00
28310;BME280;15571;50.974;13.936;2023-01-28T10:22:33;101272.41;;;-0.71;100.00
28310;BME280;15571;50.974;13.936;2023-01-28T10:25:36;101287.31;;;-0.81;100.00
28310;BME280;15571;50.974;13.936;2023-01-28T10:28:39;101297.59;;;-0.81;100.00
28310;BME280;15571;50.974;13.936;2023-01-28T10:31:49;101292.25;;;-0.84;100.00
28310;BME280;15571;50.974;13.936;2023-01-28T10:34:53;101287.31;;;-0.96;100.00
28310;BME280;15571;50.974;13.936;2023-01-28T10:37:59;101293.50;;;-0.92;100.00
28310;BME280;15571;50.974;13.936;2023-01-28T10:41:08;101290.94;;;-0.92;100.00
28310;BME280;15571;50.974;13.936;2023-01-28T10:44:15;101298.66;;;-0.92;100.00
28310;BME280;15571;50.974;13.936;2023-01-28T10:47:23;101305.72;;;-0.88;100.00
28310;BME280;15571;50.974;13.936;2023-01-28T10:50:28;101305.63;;;-0.89;100.00
28310;BME280;15571;50.974;13.936;2023-01-28T10:53:35;101310.06;;;-0.87;100.00
28310;BME280;15571;50.974;13.936;2023-01-28T10:56:37;101309.66;;;-0.80;100.00
28310;BME280;15571;50.974;13.936;2023-01-28T10:59:39;101308.75;;;-0.80;100.00
28310;BME280;15571;50.974;13.936;2023-01-28T11:02:43;101314.16;;;-0.75;100.00
28310;BME280;15571;50.974;13.936;2023-01-28T11:05:55;101306.44;;;-0.75;100.00
28310;BME280;15571;50.974;13.936;2023-01-28T11:08:57;101312.91;;;-0.67;100.00
28310;BME280;15571;50.974;13.936;2023-01-28T11:12:09;101318.25;;;-0.64;100.00
28310;BME280;15571;50.974;13.936;2023-01-28T11:15:16;101307.69;;;-0.69;100.00
28310;BME280;15571;50.974;13.936;2023-01-28T11:18:21;101305.56;;;-0.76;100.00
28310;BME280;15571;50.974;13.936;2023-01-28T11:21:25;101306.81;;;-0.84;100.00
28310;BME280;15571;50.974;13.936;2023-01-28T11:24:29;101303.25;;;-0.86;100.00
28310;BME280;15571;50.974;13.936;2023-01-28T11:27:32;101305.19;;;-0.82;100.00
28310;BME280;15571;50.974;13.936;2023-01-28T11:30:34;101308.75;;;-0.80;100.00
28310;BME280;15571;50.974;13.936;2023-01-28T11:33:43;101307.88;;;-0.81;100.00
28310;BME280;15571;50.974;13.936;2023-01-28T11:36:50;101303.53;;;-0.82;100.00
28310;BME280;15571;50.974;13.936;2023-01-28T11:40:02;101296.88;;;-0.93;100.00
28310;BME280;15571;50.974;13.936;2023-01-28T11:43:06;101284.09;;;-0.91;100.00
28310;BME280;15571;50.974;13.936;2023-01-28T11:46:13;101299.44;;;-0.93;100.00
28310;BME280;15571;50.974;13.936;2023-01-28T11:49:24;101292.53;;;-0.94;100.00
28310;BME280;15571;50.974;13.936;2023-01-28T11:52:31;101282.88;;;-0.98;100.00
28310;BME280;15571;50.974;13.936;2023-01-28T11:55:43;101292.16;;;-1.00;100.00
28310;BME280;15571;50.974;13.936;2023-01-28T11:58:49;101291.38;;;-0.99;100.00
28310;BME280;15571;50.974;13.936;2023-01-28T12:01:54;101288.69;;;-1.01;100.00
28310;BME280;15571;50.974;13.936;2023-01-28T12:05:04;101292.97;;;-1.01;100.00
28310;BME280;15571;50.974;13.936;2023-01-28T12:08:15;101289.59;;;-1.00;100.00
28310;BME280;15571;50.974;13.936;2023-01-28T12:11:22;101278.41;;;-1.01;100.00
28310;BME280;15571;50.974;13.936;2023-01-28T12:15:00;101288.16;;;-0.95;100.00
28310;BME280;15571;50.974;13.936;2023-01-28T12:18:10;101281.25;;;-0.96;100.00
28310;BME280;15571;50.974;13.936;2023-01-28T12:21:22;101290.28;;;-1.03;100.00
28310;BME280;15571;50.974;13.936;2023-01-28T12:24:33;101281.88;;;-1.00;100.00
28310;BME280;15571;50.974;13.936;2023-01-28T12:27:41;101281.09;;;-0.99;100.00
28310;BME280;15571;50.974;13.936;2023-01-28T12:30:53;101281.69;;;-1.03;100.00
28310;BME280;15571;50.974;13.936;2023-01-28T12:34:04;101272.47;;;-1.00;100.00
28310;BME280;15571;50.974;13.936;2023-01-28T12:37:20;101271.69;;;-0.99;100.00
28310;BME280;15571;50.974;13.936;2023-01-28T21:15:50;101402.94;;;-0.37;100.00
28310;BME280;15571;50.974;13.936;2023-01-28T21:18:56;101403.84;;;-0.37;100.00
28310;BME280;15571;50.974;13.936;2023-01-28T21:21:58;101416.78;;;-0.35;100.00
28310;BME280;15571;50.974;13.936;2023-01-28T22:48:35;101379.50;;;-0.27;100.00
28310;BME280;15571;50.974;13.936;2023-01-28T22:51:43;101383.06;;;-0.25;100.00
28310;BME280;15571;50.974;13.936;2023-01-28T22:54:45;101378.72;;;-0.26;100.00
28310;BME280;15571;50.974;13.936;2023-01-28T22:57:47;101371.19;;;-0.23;100.00
28310;BME280;15571;50.974;13.936;2023-01-28T23:00:49;101383.25;;;-0.22;100.00
28310;BME280;15571;50.974;13.936;2023-01-28T23:03:54;101381.47;;;-0.23;100.00
28310;BME280;15571;50.974;13.936;2023-01-28T23:06:58;101384.84;;;-0.24;100.00
28310;BME280;15571;50.974;13.936;2023-01-28T23:10:03;101383.06;;;-0.25;100.00
28310;BME280;15571;50.974;13.936;2023-01-28T23:13:05;101381.28;;;-0.26;100.00
28310;BME280;15571;50.974;13.936;2023-01-28T23:16:13;101388.03;;;-0.28;100.00
28310;BME280;15571;50.974;13.936;2023-01-28T23:19:34;101390.59;;;-0.28;100.00
28310;BME280;15571;50.974;13.936;2023-01-28T23:22:53;101379.50;;;-0.27;100.00
